Time;durP1;ratioP1;P1;durP2;ratioP2;P2;SDS_P1;SDS_P2;PMS_P1;PMS_P2;Temp;Humidity;BMP_temperature;BMP_pressure;BME280_temperature;BME280_humidity;BME280_pressure;Samples;Min_cycle;Max_cycle;Signal;HPM_P1;HPM_P2
2021/04/22 00:00:34;;;;;;;12.77;1.55;;;;;;;4.46;38.95;102095.63;4991152;28;20036;-70
2021/04/22 00:02:59;;;;;;;4.47;0.60;;;;;;;4.32;38.73;102104.19;4990788;28;20149;-69
2021/04/22 00:05:29;;;;;;;14.88;1.48;;;;;;;3.97;39.09;102106.53;5000019;28;20041;-70
2021/04/22 00:07:55;;;;;;;7.57;1.05;;;;;;;4.20;38.43;102096.31;4991512;28;20501;-70
2021/04/22 00:10:41;;;;;;;13.93;1.00;;;;;;;4.25;38.75;102104.97;4993364;28;20033;-70
2021/04/22 00:13:07;;;;;;;12.23;1.42;;;;;;;4.18;38.64;102096.31;4990865;28;20054;-66
2021/04/22 00:15:34;;;;;;;9.60;2.33;;;;;;;3.81;39.76;102105.53;4988693;28;20046;-67
2021/04/22 00:17:59;;;;;;;8.10;0.95;;;;;;;4.25;39.00;102096.34;4992125;28;20505;-66
2021/04/22 00:20:26;;;;;;;5.60;0.40;;;;;;;4.40;38.77;102102.47;4993060;28;20061;-68
2021/04/22 00:22:51;;;;;;;13.27;1.02;;;;;;;4.05;39.24;102104.88;4992885;28;20034;-66
2021/04/22 00:25:17;;;;;;;8.27;1.10;;;;;;;4.40;38.87;102105.06;4993521;28;20045;-67
2021/04/22 00:27:43;;;;;;;8.07;1.20;;;;;;;4.41;39.31;102109.41;4991529;28;20071;-68
2021/04/22 00:30:11;;;;;;;3.85;0.70;;;;;;;3.58;41.24;102101.06;4995067;28;20189;-69
2021/04/22 00:32:37;;;;;;;4.47;1.10;;;;;;;4.17;40.35;102098.91;4988357;28;20026;-68
2021/04/22 00:35:04;;;;;;;10.73;1.15;;;;;;;3.94;40.42;102101.31;4992510;28;20568;-68
2021/04/22 00:37:29;;;;;;;13.32;1.50;;;;;;;3.92;40.87;102106.50;4991882;28;20030;-68
2021/04/22 00:39:55;;;;;;;7.40;1.35;;;;;;;3.48;41.90;102106.97;4990072;28;20030;-68
2021/04/22 00:42:20;;;;;;;13.55;1.02;;;;;;;3.93;41.09;102108.22;4992414;28;20113;-69
2021/04/22 00:44:47;;;;;;;14.88;1.80;;;;;;;3.99;40.98;102094.47;4991150;28;20062;-68
2021/04/22 00:47:19;;;;;;;11.15;2.70;;;;;;;4.00;41.14;102106.53;4991160;28;20103;-68
2021/04/22 00:49:47;;;;;;;12.10;1.10;;;;;;;3.81;41.02;102102.97;4998727;28;20080;-68
2021/04/22 00:52:14;;;;;;;13.20;1.25;;;;;;;4.14;40.28;102099.75;4991409;28;20034;-68
2021/04/22 00:54:40;;;;;;;9.25;1.23;;;;;;;3.80;40.63;102103.78;4992598;28;20042;-69
2021/04/22 00:57:09;;;;;;;10.02;1.67;;;;;;;3.94;40.76;102106.47;4993119;28;20041;-69
2021/04/22 00:59:35;;;;;;;8.85;1.48;;;;;;;4.01;40.64;102111.72;4994386;28;20035;-68
2021/04/22 01:02:06;;;;;;;9.05;1.20;;;;;;;3.88;40.49;102111.63;4994217;28;20413;-68
2021/04/22 01:04:32;;;;;;;12.27;1.10;;;;;;;4.40;39.51;102109.38;4994743;28;20034;-68
2021/04/22 01:06:58;;;;;;;7.13;0.90;;;;;;;4.51;39.31;102106.84;4994254;28;20505;-67
2021/04/22 01:09:23;;;;;;;16.98;0.82;;;;;;;4.51;39.01;102110.31;4995553;28;20034;-66
2021/04/22 01:11:49;;;;;;;16.35;1.60;;;;;;;4.20;39.86;102111.84;4995052;28;20056;-67
2021/04/22 01:14:14;;;;;;;14.40;1.10;;;;;;;4.60;39.30;102106.91;4993143;28;20038;-68
2021/04/22 01:16:40;;;;;;;8.20;0.85;;;;;;;4.64;39.25;102116.41;4995158;28;20206;-67
2021/04/22 01:19:06;;;;;;;9.75;0.70;;;;;;;4.49;39.72;102116.34;4982285;28;20038;-66
2021/04/22 01:21:31;;;;;;;11.25;1.23;;;;;;;4.36;40.42;102116.28;4993515;28;20565;-67
2021/04/22 01:23:57;;;;;;;9.75;1.10;;;;;;;4.72;40.39;102130.28;4993483;28;20121;-71
2021/04/22 01:26:25;;;;;;;9.38;1.38;;;;;;;4.84;40.60;102132.91;4995395;28;20453;-67
2021/04/22 01:28:51;;;;;;;15.80;1.10;;;;;;;4.33;41.82;102136.09;4995088;28;20526;-67
2021/04/22 01:31:17;;;;;;;10.73;1.20;;;;;;;4.77;40.96;102125.97;4994163;28;20049;-66
2021/04/22 01:33:44;;;;;;;14.95;1.35;;;;;;;4.31;40.18;102132.63;4997534;28;20026;-66
2021/04/22 01:36:09;;;;;;;10.20;1.77;;;;;;;4.25;39.95;102130.00;4995026;28;20120;-67
2021/04/22 01:38:37;;;;;;;4.30;1.10;;;;;;;4.54;39.25;102128.47;4993470;28;20030;-67
2021/04/22 01:41:03;;;;;;;16.08;1.80;;;;;;;4.39;39.42;102137.00;4994977;28;20052;-67
2021/04/22 01:43:30;;;;;;;11.40;0.80;;;;;;;4.07;40.40;102138.50;5001951;28;20109;-67
2021/04/22 01:45:56;;;;;;;7.85;1.40;;;;;;;3.80;40.56;102134.81;4995827;28;20082;-66
2021/04/22 01:48:23;;;;;;;6.60;1.17;;;;;;;4.43;39.17;102132.69;4996516;28;20556;-67
2021/04/22 01:50:49;;;;;;;14.88;1.65;;;;;;;4.24;39.20;102136.91;5001033;28;20062;-69
2021/04/22 01:53:15;;;;;;;10.45;1.23;;;;;;;4.25;39.20;102133.44;4994011;28;20049;-69
2021/04/22 01:55:43;;;;;;;11.88;1.25;;;;;;;4.25;39.45;102138.63;4994247;28;20034;-68
2021/04/22 01:58:11;;;;;;;10.98;1.02;;;;;;;4.21;39.97;102148.09;4994188;28;20498;-68
2021/04/22 02:00:43;;;;;;;9.82;1.38;;;;;;;4.80;38.77;102141.50;4996182;28;20323;-69
2021/04/22 02:03:10;;;;;;;10.52;0.90;;;;;;;4.33;39.90;102142.13;4995134;28;20081;-68
2021/04/22 02:05:37;;;;;;;13.27;0.52;;;;;;;3.92;40.51;102142.72;4998358;28;20490;-70
2021/04/22 02:08:03;;;;;;;6.97;1.10;;;;;;;4.60;39.25;102141.41;4993549;28;20018;-70
2021/04/22 02:10:29;;;;;;;9.30;0.82;;;;;;;4.49;39.16;102142.22;5008643;28;20033;-69
2021/04/22 02:12:55;;;;;;;10.23;1.02;;;;;;;4.50;38.75;102139.66;4995650;28;20026;-69
2021/04/22 02:15:27;;;;;;;17.60;1.67;;;;;;;4.37;38.48;102143.03;4996084;28;20034;-67
2021/04/22 02:17:53;;;;;;;7.28;0.60;;;;;;;4.36;38.50;102136.09;4994342;28;20458;-67
2021/04/22 02:20:19;;;;;;;10.15;1.15;;;;;;;4.06;38.51;102136.78;4995585;28;20116;-68
2021/04/22 02:22:45;;;;;;;14.18;0.75;;;;;;;4.28;38.27;102130.03;4992448;28;20432;-66
2021/04/22 02:25:14;;;;;;;12.38;1.75;;;;;;;4.13;38.70;102131.63;4992468;28;20500;-68
2021/04/22 02:27:40;;;;;;;12.48;1.10;;;;;;;4.48;38.25;102130.16;4992784;28;20053;-70
2021/04/22 02:30:13;;;;;;;11.43;0.90;;;;;;;4.61;38.21;102132.81;4993448;28;20349;-69
2021/04/22 02:32:39;;;;;;;8.40;0.88;;;;;;;4.29;37.60;102132.59;4992444;28;20033;-67
2021/04/22 02:35:07;;;;;;;10.38;0.77;;;;;;;4.54;37.47;102130.16;4992993;28;20052;-67
2021/04/22 02:37:33;;;;;;;7.88;0.68;;;;;;;4.78;37.42;102132.00;4992110;28;20073;-67
2021/04/22 02:39:58;;;;;;;8.13;1.60;;;;;;;4.66;38.46;102140.59;4994130;28;20065;-68
2021/04/22 02:42:24;;;;;;;11.82;1.05;;;;;;;4.68;38.47;102144.06;5000994;28;20030;-66
2021/04/22 02:44:49;;;;;;;9.25;0.90;;;;;;;4.74;38.80;102138.88;4993772;28;20036;-67
2021/04/22 02:47:15;;;;;;;34.75;1.48;;;;;;;4.62;38.68;102144.03;4996544;28;20546;-70
2021/04/22 02:49:40;;;;;;;16.67;1.50;;;;;;;4.48;38.40;102143.09;4994573;28;20034;-66
2021/04/22 02:52:06;;;;;;;8.95;0.85;;;;;;;3.85;39.19;102133.16;4993939;28;20034;-67
2021/04/22 02:54:31;;;;;;;11.63;0.88;;;;;;;4.51;38.24;102137.94;4999887;28;20038;-68
2021/04/22 02:56:57;;;;;;;10.80;1.88;;;;;;;4.45;39.02;102143.06;5000832;28;20111;-67
2021/04/22 02:59:23;;;;;;;9.52;1.52;;;;;;;4.69;39.10;102132.84;5000253;28;20041;-68
2021/04/22 03:01:49;;;;;;;13.88;0.50;;;;;;;4.39;39.63;102129.22;4994034;28;20041;-67
2021/04/22 03:04:14;;;;;;;8.93;0.82;;;;;;;4.38;39.91;102130.06;4995248;28;20512;-68
2021/04/22 03:06:40;;;;;;;10.23;1.25;;;;;;;4.62;39.64;102131.94;4994636;28;20034;-69
2021/04/22 03:09:06;;;;;;;15.88;1.63;;;;;;;4.99;38.83;102134.72;4992736;28;20126;-67
2021/04/22 03:11:31;;;;;;;3.55;0.82;;;;;;;4.87;39.28;102124.28;4999599;28;20025;-67
2021/04/22 03:13:57;;;;;;;14.80;1.67;;;;;;;4.38;40.21;102134.38;4991115;28;20410;-69
2021/04/22 03:16:23;;;;;;;11.85;0.75;;;;;;;4.52;40.13;102139.63;4992348;28;20065;-71
2021/04/22 03:18:49;;;;;;;11.88;0.90;;;;;;;4.59;40.15;102131.06;4992565;28;20457;-68
2021/04/22 03:21:14;;;;;;;11.88;1.45;;;;;;;4.16;41.12;102138.56;4995187;28;20033;-68
2021/04/22 03:23:40;;;;;;;9.30;0.55;;;;;;;3.95;41.22;102134.97;4993633;28;20073;-68
2021/04/22 03:26:05;;;;;;;10.07;0.93;;;;;;;3.74;41.61;102139.97;4998419;28;20531;-68
2021/04/22 03:28:31;;;;;;;10.52;1.05;;;;;;;4.48;40.28;102141.38;4992911;28;20117;-68
2021/04/22 03:30:56;;;;;;;6.30;1.45;;;;;;;3.89;41.63;102134.91;4993634;28;20037;-66
2021/04/22 03:33:22;;;;;;;15.30;2.60;;;;;;;4.41;40.64;102140.47;4991414;28;20026;-69
2021/04/22 03:35:47;;;;;;;15.95;1.15;;;;;;;4.18;41.03;102132.53;5000174;28;20427;-75
2021/04/22 03:38:13;;;;;;;10.73;0.88;;;;;;;4.27;40.72;102139.50;4993693;28;20042;-74
2021/04/22 03:40:38;;;;;;;7.22;1.52;;;;;;;4.06;41.03;102141.94;4992190;28;20038;-72
2021/04/22 03:43:04;;;;;;;7.30;1.45;;;;;;;4.01;40.95;102145.38;4995791;28;20383;-65
2021/04/22 03:45:29;;;;;;;8.07;1.27;;;;;;;4.39;40.13;102141.31;4994141;28;20092;-66
2021/04/22 03:47:55;;;;;;;14.25;1.73;;;;;;;4.41;40.04;102145.63;4992450;28;20072;-66
2021/04/22 03:50:21;;;;;;;13.38;1.20;;;;;;;4.58;39.88;102153.50;4994765;28;20038;-67
2021/04/22 03:52:47;;;;;;;5.20;0.88;;;;;;;4.55;39.82;102150.03;4994373;28;20140;-66
2021/04/22 03:55:15;;;;;;;8.73;1.67;;;;;;;4.40;39.93;102148.22;4992912;28;20514;-67
2021/04/22 03:57:41;;;;;;;12.18;1.60;;;;;;;4.31;39.81;102145.56;4992289;28;20534;-68
2021/04/22 04:00:08;;;;;;;14.82;1.40;;;;;;;4.47;39.74;102159.47;4993583;28;20034;-65
2021/04/22 04:02:34;;;;;;;13.27;1.23;;;;;;;4.21;40.19;102157.59;4992059;28;20327;-64
2021/04/22 04:04:59;;;;;;;13.60;1.38;;;;;;;4.30;39.96;102165.41;4994008;28;20561;-65
2021/04/22 04:07:25;;;;;;;11.85;1.60;;;;;;;4.42;39.97;102162.03;4990164;28;20352;-65
2021/04/22 04:09:50;;;;;;;9.30;0.68;;;;;;;4.46;39.88;102156.03;4989133;28;20034;-65
2021/04/22 04:12:16;;;;;;;14.48;1.52;;;;;;;4.30;40.50;102157.66;4992066;28;20383;-64
2021/04/22 04:14:41;;;;;;;15.32;1.77;;;;;;;3.94;41.45;102153.03;4990257;28;20449;-64
2021/04/22 04:17:07;;;;;;;10.60;1.50;;;;;;;4.56;40.23;102169.88;4993995;28;20546;-64
2021/04/22 04:19:32;;;;;;;7.97;1.15;;;;;;;4.60;40.56;102166.44;4991491;28;20042;-66
2021/04/22 04:21:58;;;;;;;14.02;1.42;;;;;;;4.34;40.97;102168.88;4996717;28;20045;-66
2021/04/22 04:24:24;;;;;;;7.18;0.95;;;;;;;4.25;40.85;102171.41;4991622;28;20044;-66
2021/04/22 04:26:50;;;;;;;8.88;0.90;;;;;;;4.70;39.72;102167.34;4990731;28;20042;-66
2021/04/22 04:29:15;;;;;;;5.80;0.70;;;;;;;4.43;40.20;102180.19;4992942;28;20176;-67
2021/04/22 04:31:41;;;;;;;7.07;1.10;;;;;;;4.89;39.44;102174.41;4991840;28;20402;-66
2021/04/22 04:34:07;;;;;;;4.38;1.15;;;;;;;4.33;39.82;102173.19;4978530;28;20037;-65
2021/04/22 04:36:32;;;;;;;9.35;1.15;;;;;;;4.72;39.04;102176.91;4992894;28;20037;-66
2021/04/22 04:38:58;;;;;;;13.55;1.75;;;;;;;4.94;38.59;102179.59;4993538;28;20045;-65
2021/04/22 04:41:23;;;;;;;8.45;0.88;;;;;;;4.79;38.83;102173.47;4992768;28;20034;-65
2021/04/22 04:43:49;;;;;;;12.20;1.65;;;;;;;4.80;38.93;102180.38;4992998;28;20037;-64
2021/04/22 04:46:17;;;;;;;8.75;0.90;;;;;;;4.55;39.27;102178.53;4991966;28;20096;-64
2021/04/22 04:48:46;;;;;;;13.15;1.42;;;;;;;4.71;39.11;102184.66;4993284;28;20034;-65
2021/04/22 04:51:12;;;;;;;8.48;0.95;;;;;;;4.68;39.37;102185.50;4991540;28;20080;-64
2021/04/22 04:53:38;;;;;;;13.63;1.00;;;;;;;4.29;40.14;102186.09;4990885;28;20038;-65
2021/04/22 04:56:04;;;;;;;10.60;1.58;;;;;;;4.57;39.14;102182.84;4989417;28;20049;-64
2021/04/22 04:58:29;;;;;;;9.82;1.85;;;;;;;4.69;39.09;102187.22;4992460;28;20067;-64
2021/04/22 05:00:54;;;;;;;16.08;1.48;;;;;;;4.54;39.30;102197.47;4991204;28;20041;-65
2021/04/22 05:03:20;;;;;;;8.88;0.43;;;;;;;4.37;39.37;102199.97;4993163;28;20049;-65
2021/04/22 05:05:45;;;;;;;6.80;1.13;;;;;;;4.51;39.23;102194.88;4992811;28;20038;-67
2021/04/22 05:08:11;;;;;;;7.25;0.95;;;;;;;4.55;39.38;102201.81;4992409;28;20474;-65
2021/04/22 05:10:37;;;;;;;4.72;0.95;;;;;;;4.50;39.02;102206.09;4992110;28;20034;-65
2021/04/22 05:13:02;;;;;;;8.93;1.60;;;;;;;4.46;39.55;102204.34;4991220;28;20058;-69
2021/04/22 05:15:28;;;;;;;5.55;1.38;;;;;;;4.41;39.89;102207.78;4989291;28;20033;-69
2021/04/22 05:17:53;;;;;;;13.00;1.00;;;;;;;4.89;39.00;102202.91;4996223;28;20088;-69
2021/04/22 05:20:18;;;;;;;9.60;1.23;;;;;;;5.17;38.59;102211.69;4990990;28;20061;-66
2021/04/22 05:22:44;;;;;;;10.82;1.27;;;;;;;4.60;39.56;102211.34;4991042;28;20418;-65
2021/04/22 05:25:10;;;;;;;5.72;0.55;;;;;;;4.79;39.57;102220.09;4991492;28;20026;-65
2021/04/22 05:27:37;;;;;;;13.85;2.30;;;;;;;4.97;39.30;102224.53;4992821;28;20038;-66
2021/04/22 05:30:05;;;;;;;6.20;0.90;;;;;;;5.07;38.55;102225.44;4991059;28;20060;-66
2021/04/22 05:32:31;;;;;;;10.90;1.15;;;;;;;4.98;37.67;102230.59;4990448;28;20556;-66
2021/04/22 05:34:56;;;;;;;4.45;0.38;;;;;;;4.80;37.67;102231.31;4990455;28;20525;-66
2021/04/22 05:37:22;;;;;;;13.88;1.33;;;;;;;5.22;37.30;102235.88;4988856;28;20511;-67
2021/04/22 05:39:47;;;;;;;5.50;0.80;;;;;;;5.50;36.28;102235.97;4998860;28;20076;-67
2021/04/22 05:42:13;;;;;;;5.32;0.95;;;;;;;5.09;36.54;102228.06;4998740;28;20042;-66
2021/04/22 05:44:39;;;;;;;6.90;0.63;;;;;;;5.04;36.59;102231.47;5011766;22;20041;-66
2021/04/22 05:47:05;;;;;;;13.50;1.50;;;;;;;5.75;35.47;102233.44;5009747;28;20072;-69
2021/04/22 05:49:30;;;;;;;6.20;0.55;;;;;;;5.21;36.27;102228.97;5013897;28;20052;-70
2021/04/22 05:51:55;;;;;;;2.42;0.43;;;;;;;5.01;36.36;102234.06;5015124;28;20091;-70
2021/04/22 05:54:21;;;;;;;7.25;1.08;;;;;;;4.98;36.45;102233.19;5017295;28;20117;-69
2021/04/22 05:56:47;;;;;;;7.53;0.90;;;;;;;4.86;36.34;102238.28;5029701;28;20454;-70
2021/04/22 05:59:12;;;;;;;12.55;0.95;;;;;;;4.72;36.67;102249.41;5015267;28;20064;-70
2021/04/22 06:01:38;;;;;;;19.77;1.45;;;;;;;4.90;36.53;102237.44;5013773;28;20029;-68
2021/04/22 06:04:04;;;;;;;9.65;1.30;;;;;;;5.28;36.04;102236.75;5012343;28;20609;-70
2021/04/22 06:06:29;;;;;;;13.00;2.25;;;;;;;5.85;35.34;102242.97;5015361;28;20300;-69
2021/04/22 06:08:55;;;;;;;16.52;1.42;;;;;;;5.82;35.57;102243.00;5018980;28;20057;-69
2021/04/22 06:11:20;;;;;;;5.70;0.57;;;;;;;5.92;35.63;102236.06;5018768;28;20480;-69
2021/04/22 06:13:46;;;;;;;10.82;1.30;;;;;;;5.30;36.53;102246.31;5018283;28;20053;-70
2021/04/22 06:16:13;;;;;;;13.30;1.23;;;;;;;5.86;36.08;102249.91;5015393;28;20152;-70
2021/04/22 06:18:39;;;;;;;9.98;0.93;;;;;;;5.15;36.70;102244.50;5024437;28;20036;-70
2021/04/22 06:21:05;;;;;;;8.63;1.27;;;;;;;5.34;36.90;102249.75;5028302;28;20128;-71
2021/04/22 06:23:30;;;;;;;8.63;0.60;;;;;;;6.30;35.35;102246.50;5015521;28;20520;-71
2021/04/22 06:25:56;;;;;;;7.10;0.88;;;;;;;6.43;35.07;102256.03;5017125;28;20412;-71
2021/04/22 06:28:22;;;;;;;14.82;1.13;;;;;;;5.97;35.68;102256.00;5016448;28;20034;-70
2021/04/22 06:30:48;;;;;;;5.88;0.43;;;;;;;6.18;35.26;102273.31;5017621;28;20058;-70
2021/04/22 06:33:13;;;;;;;9.77;1.38;;;;;;;5.98;35.38;102275.03;5016079;28;20033;-67
2021/04/22 06:35:39;;;;;;;11.95;1.50;;;;;;;6.74;34.09;102275.91;5018080;28;20044;-68
2021/04/22 06:38:06;;;;;;;12.00;0.95;;;;;;;8.20;32.34;102267.47;5017506;28;20041;-69
2021/04/22 06:40:32;;;;;;;3.28;0.80;;;;;;;7.58;33.36;102270.47;5016204;28;20453;-68
2021/04/22 06:42:57;;;;;;;8.23;0.95;;;;;;;7.81;33.21;102266.88;5015841;28;20116;-67
2021/04/22 06:45:23;;;;;;;5.05;0.93;;;;;;;6.85;34.66;102272.44;5016239;28;20453;-68
2021/04/22 06:47:48;;;;;;;8.43;1.27;;;;;;;7.16;34.48;102282.75;5014794;28;20577;-68
2021/04/22 06:50:16;;;;;;;5.97;0.68;;;;;;;6.15;35.65;102290.59;5013970;28;20037;-69
2021/04/22 06:52:42;;;;;;;15.70;0.80;;;;;;;6.48;35.43;102282.88;5013987;28;20327;-67
2021/04/22 06:55:13;;;;;;;9.98;0.85;;;;;;;6.36;35.84;102297.59;5015174;28;20017;-69
2021/04/22 06:57:38;;;;;;;6.93;1.30;;;;;;;6.49;35.35;102295.00;5013496;28;20034;-67
2021/04/22 07:00:15;;;;;;;6.53;0.82;;;;;;;6.59;35.28;102298.44;5013437;28;20495;-68
2021/04/22 07:02:41;;;;;;;7.38;0.57;;;;;;;7.28;33.64;102300.91;5012921;28;20033;-68
2021/04/22 07:05:08;;;;;;;7.07;0.85;;;;;;;7.95;32.88;102294.53;5016813;28;20121;-69
2021/04/22 07:07:34;;;;;;;8.88;0.80;;;;;;;9.40;30.59;102291.47;5010422;28;20079;-67
2021/04/22 07:10:00;;;;;;;14.48;1.13;;;;;;;10.02;30.18;102288.91;5012376;28;20394;-68
2021/04/22 07:12:26;;;;;;;11.80;0.88;;;;;;;10.39;29.52;102300.53;5021559;28;20120;-69
2021/04/22 07:14:52;;;;;;;13.18;1.63;;;;;;;12.01;28.19;102291.25;5014785;28;20025;-68
2021/04/22 07:17:18;;;;;;;5.88;0.82;;;;;;;12.33;27.28;102294.00;5013483;28;20320;-68
2021/04/22 07:19:44;;;;;;;5.25;1.17;;;;;;;11.86;27.53;102297.72;5013368;28;20257;-69
2021/04/22 07:22:09;;;;;;;10.32;0.90;;;;;;;9.76;30.11;102299.72;5013220;28;20029;-68
2021/04/22 07:24:37;;;;;;;9.57;1.10;;;;;;;10.00;29.71;102303.75;5014030;28;20034;-68
2021/04/22 07:27:04;;;;;;;11.18;1.40;;;;;;;11.75;26.31;102301.44;5013204;28;20505;-68
2021/04/22 07:29:30;;;;;;;4.88;0.40;;;;;;;13.89;23.70;102321.19;5014054;28;20577;-68
2021/04/22 07:31:55;;;;;;;18.05;1.55;;;;;;;13.55;23.80;102302.94;5012438;28;20079;-68
2021/04/22 07:34:21;;;;;;;3.92;0.93;;;;;;;12.69;24.95;102311.47;5015127;28;20033;-69
2021/04/22 07:36:46;;;;;;;13.02;2.00;;;;;;;13.57;24.33;102309.03;5015862;28;20108;-69
2021/04/22 07:39:12;;;;;;;6.32;1.17;;;;;;;14.42;22.98;102311.66;5011240;28;20029;-69
2021/04/22 07:41:37;;;;;;;9.82;1.08;;;;;;;14.23;23.23;102317.50;5013361;28;21350;-68
2021/04/22 07:44:03;;;;;;;13.80;1.25;;;;;;;14.53;23.52;102309.53;5013746;28;20033;-68
2021/04/22 07:46:29;;;;;;;8.93;0.70;;;;;;;15.45;22.13;102331.75;5010276;28;20034;-68
2021/04/22 07:48:54;;;;;;;6.78;1.60;;;;;;;13.48;24.47;102323.28;5013232;28;20048;-69
2021/04/22 07:51:20;;;;;;;8.07;0.90;;;;;;;13.64;24.50;102334.22;5010143;28;20030;-68
2021/04/22 07:53:45;;;;;;;6.28;1.42;;;;;;;12.05;26.18;102339.22;5015555;28;20044;-68
2021/04/22 07:56:11;;;;;;;2.78;0.60;;;;;;;10.71;28.78;102339.22;5016609;28;20033;-68
2021/04/22 07:58:37;;;;;;;11.18;1.75;;;;;;;9.38;31.07;102341.97;5014591;28;20025;-68
2021/04/22 08:01:02;;;;;;;15.70;1.05;;;;;;;10.25;30.37;102337.34;5012656;28;20124;-67
2021/04/22 08:03:28;;;;;;;7.82;1.23;;;;;;;11.31;28.23;102338.16;5009500;28;20049;-68
2021/04/22 08:05:57;;;;;;;8.00;0.65;;;;;;;12.58;27.44;102350.19;5009434;28;20045;-68
2021/04/22 08:08:24;;;;;;;8.10;1.42;;;;;;;13.90;25.56;102357.09;5010036;28;20068;-70
2021/04/22 08:10:50;;;;;;;9.25;1.55;;;;;;;12.33;27.64;102354.31;5011285;28;20084;-68
2021/04/22 08:13:18;;;;;;;8.93;1.00;;;;;;;12.31;28.33;102350.84;5010703;28;20079;-67
2021/04/22 08:15:46;;;;;;;7.20;1.58;;;;;;;12.53;28.41;102354.66;5012558;28;20178;-67
2021/04/22 08:18:12;;;;;;;9.40;1.10;;;;;;;12.31;27.04;102361.34;5010895;28;20037;-67
2021/04/22 08:20:39;;;;;;;17.23;1.67;;;;;;;9.02;31.72;102351.06;5011242;28;20040;-67
2021/04/22 08:23:07;;;;;;;8.43;1.15;;;;;;;9.70;31.62;102361.59;5007574;28;20564;-69
2021/04/22 08:25:36;;;;;;;7.28;1.48;;;;;;;9.47;31.36;102367.09;5011378;28;20121;-68
2021/04/22 08:28:03;;;;;;;6.63;0.77;;;;;;;8.68;32.92;102372.19;5009752;28;20037;-68
2021/04/22 08:30:38;;;;;;;5.10;1.45;;;;;;;10.68;30.18;102369.78;5010814;28;20034;-67
2021/04/22 08:33:06;;;;;;;9.45;1.42;;;;;;;10.43;29.33;102370.16;5009665;28;20036;-69
2021/04/22 08:35:32;;;;;;;10.65;1.20;;;;;;;10.80;29.56;102382.66;5012113;28;20037;-69
2021/04/22 08:37:57;;;;;;;7.80;1.23;;;;;;;11.23;28.03;102379.31;5013350;28;20057;-67
2021/04/22 08:40:24;;;;;;;15.95;1.10;;;;;;;10.82;27.78;102383.53;5011645;28;20141;-69
2021/04/22 08:42:50;;;;;;;9.25;1.20;;;;;;;9.57;30.66;102387.00;5010873;28;20034;-68
2021/04/22 08:45:16;;;;;;;7.20;1.75;;;;;;;8.78;32.21;102389.50;5009431;28;20829;-67
2021/04/22 08:47:43;;;;;;;5.95;1.67;;;;;;;8.66;32.54;102381.75;5012866;28;20037;-68
2021/04/22 08:50:14;;;;;;;13.35;2.03;;;;;;;9.50;31.22;102391.44;5012776;28;20038;-69
2021/04/22 08:52:40;;;;;;;8.40;0.95;;;;;;;9.92;29.83;102393.53;5011035;28;20030;-67
2021/04/22 08:55:08;;;;;;;7.85;1.33;;;;;;;10.03;29.64;102396.88;5014233;28;20302;-68
2021/04/22 08:57:33;;;;;;;6.43;1.15;;;;;;;11.20;28.46;102397.69;5013970;28;20073;-69
2021/04/22 08:59:59;;;;;;;8.13;1.15;;;;;;;11.12;28.10;102400.44;5012797;28;20112;-68
2021/04/22 09:02:24;;;;;;;12.10;1.00;;;;;;;9.11;31.51;102395.31;5012858;28;20172;-68
2021/04/22 09:04:50;;;;;;;6.53;1.00;;;;;;;8.25;32.40;102404.63;5013431;28;20033;-69
2021/04/22 09:07:16;;;;;;;5.75;0.82;;;;;;;7.50;34.15;102412.69;5015315;28;20063;-68
2021/04/22 09:09:41;;;;;;;7.13;1.08;;;;;;;8.29;33.32;102405.44;5012409;28;20454;-67
2021/04/22 09:12:19;;;;;;;7.57;0.93;;;;;;;8.97;32.54;102416.31;5014197;28;20041;-67
2021/04/22 09:14:59;;;;;;;6.25;0.90;;;;;;;9.62;31.52;102406.06;5007453;28;20599;-67
2021/04/22 09:17:25;;;;;;;14.95;1.42;;;;;;;10.11;31.21;102415.09;5009715;28;20095;-68
2021/04/22 09:19:52;;;;;;;7.60;1.23;;;;;;;10.12;30.73;102412.44;5010167;28;20042;-68
2021/04/22 09:22:18;;;;;;;9.07;0.88;;;;;;;9.83;30.40;102410.19;5012721;28;20044;-69
2021/04/22 09:24:44;;;;;;;8.68;1.27;;;;;;;9.45;31.74;102419.28;5008309;28;20061;-69
2021/04/22 09:27:16;;;;;;;6.70;1.60;;;;;;;10.04;30.02;102418.66;5014036;28;20037;-68
2021/04/22 09:29:46;;;;;;;3.70;0.98;;;;;;;10.23;30.21;102407.06;5013045;28;20080;-69
2021/04/22 09:32:16;;;;;;;11.90;1.85;;;;;;;10.35;29.79;102411.28;5022045;28;20509;-69
2021/04/22 09:34:47;;;;;;;9.23;1.10;;;;;;;10.41;29.78;102405.91;5010887;28;20478;-68
2021/04/22 09:37:13;;;;;;;21.30;2.15;;;;;;;10.13;31.02;102398.50;5016948;28;20120;-68
2021/04/22 09:39:38;;;;;;;8.82;1.38;;;;;;;8.89;32.57;102403.31;5013869;28;20344;-68
2021/04/22 09:42:17;;;;;;;9.77;1.25;;;;;;;9.32;31.83;102418.59;5013882;28;20131;-67
2021/04/22 09:44:50;;;;;;;7.88;1.35;;;;;;;9.76;32.00;102427.66;5015146;28;20041;-68
2021/04/22 09:47:20;;;;;;;5.95;1.10;;;;;;;9.19;32.18;102420.44;5025910;28;20037;-68
2021/04/22 09:50:00;;;;;;;4.60;1.33;;;;;;;9.81;32.05;102417.19;5011190;28;20052;-68
2021/04/22 09:52:31;;;;;;;12.82;1.48;;;;;;;10.48;30.90;102417.16;5010539;28;20025;-67
2021/04/22 09:54:57;;;;;;;11.32;1.42;;;;;;;9.40;32.45;102421.97;5013366;28;20068;-68
2021/04/22 09:57:28;;;;;;;10.07;1.83;;;;;;;9.25;34.14;102416.88;5011513;28;20128;-66
2021/04/22 09:59:55;;;;;;;5.25;0.90;;;;;;;10.33;31.77;102426.09;5012990;28;20758;-67
2021/04/22 10:02:21;;;;;;;7.18;1.33;;;;;;;11.63;30.36;102425.66;5016138;28;20025;-68
2021/04/22 10:04:50;;;;;;;9.50;1.27;;;;;;;10.21;31.14;102425.38;5009540;28;20044;-68
2021/04/22 10:07:21;;;;;;;10.55;1.60;;;;;;;10.57;31.56;102423.13;5014433;28;20037;-67
2021/04/22 10:09:47;;;;;;;6.18;1.52;;;;;;;9.25;31.34;102416.88;5011088;28;20481;-68
2021/04/22 10:12:30;;;;;;;11.23;1.67;;;;;;;10.20;30.73;102428.88;5013153;28;20030;-68
2021/04/22 10:15:11;;;;;;;12.48;1.65;;;;;;;9.26;31.77;102429.06;5010412;28;20125;-67
2021/04/22 10:17:37;;;;;;;7.72;1.13;;;;;;;10.38;31.02;102427.75;5015714;28;20056;-69
2021/04/22 10:20:11;;;;;;;7.35;0.75;;;;;;;10.61;29.89;102437.84;5011431;28;20432;-68
2021/04/22 10:22:42;;;;;;;16.27;1.48;;;;;;;11.28;28.83;102419.34;5015136;28;20068;-68
2021/04/22 10:25:10;;;;;;;8.02;2.50;;;;;;;11.31;29.06;102434.13;5010721;28;20143;-68
2021/04/22 10:27:37;;;;;;;5.43;1.30;;;;;;;11.25;29.20;102429.88;5013119;28;20338;-69
2021/04/22 10:30:08;;;;;;;6.13;1.27;;;;;;;10.13;30.83;102444.66;5012964;28;20117;-71
2021/04/22 10:32:34;;;;;;;9.63;1.23;;;;;;;10.04;31.16;102444.78;5013043;28;20028;-68
2021/04/22 10:35:02;;;;;;;7.70;1.13;;;;;;;9.70;31.61;102443.41;5010764;28;20134;-69
2021/04/22 10:37:28;;;;;;;8.73;1.30;;;;;;;9.99;31.94;102450.03;5012536;28;20120;-68
2021/04/22 10:39:56;;;;;;;6.38;0.98;;;;;;;9.97;31.70;102446.63;5012270;28;20048;-67
2021/04/22 10:42:23;;;;;;;4.43;0.82;;;;;;;10.99;31.00;102449.50;5013139;28;20044;-69
2021/04/22 10:44:50;;;;;;;8.30;1.93;;;;;;;10.35;31.28;102458.31;4981250;28;796726;-67
2021/04/22 10:47:17;;;;;;;7.97;0.95;;;;;;;9.53;32.81;102447.94;5014670;28;20288;-68
2021/04/22 10:49:42;;;;;;;7.05;1.15;;;;;;;10.38;31.35;102455.66;5013818;28;20028;-68
2021/04/22 10:52:08;;;;;;;7.35;1.38;;;;;;;9.71;32.70;102447.72;5014177;28;20033;-68
2021/04/22 10:54:39;;;;;;;5.60;0.70;;;;;;;10.68;30.91;102451.69;5011996;28;20029;-67
2021/04/22 10:57:13;;;;;;;4.15;0.77;;;;;;;10.65;31.92;102467.44;5012520;28;20516;-69
2021/04/22 10:59:38;;;;;;;6.45;0.60;;;;;;;10.50;31.71;102465.91;5012248;28;20504;-67
2021/04/22 11:02:12;;;;;;;6.10;1.20;;;;;;;10.21;31.33;102464.59;5012430;28;20238;-67
2021/04/22 11:04:38;;;;;;;7.68;1.23;;;;;;;9.57;32.90;102465.31;5010412;28;20037;-67
2021/04/22 11:07:22;;;;;;;11.38;1.23;;;;;;;9.93;32.58;102463.19;5012703;28;20246;-67
2021/04/22 11:09:53;;;;;;;5.43;1.50;;;;;;;10.34;31.88;102472.25;5008984;28;20751;-69
2021/04/22 11:12:30;;;;;;;7.78;1.15;;;;;;;10.77;31.23;102469.88;5009891;28;20080;-68
2021/04/22 11:14:57;;;;;;;9.27;1.45;;;;;;;10.49;31.46;102468.56;5007952;28;20399;-68
2021/04/22 11:17:35;;;;;;;3.22;0.60;;;;;;;10.07;32.05;102481.31;5010255;28;20086;-68
2021/04/22 11:20:33;;;;;;;6.78;1.05;;;;;;;9.66;33.12;102483.47;5009283;28;20053;-68
2021/04/22 11:22:58;;;;;;;9.07;1.95;;;;;;;10.36;32.05;102473.09;5007605;28;20041;-67
2021/04/22 11:25:24;;;;;;;7.03;1.20;;;;;;;11.43;31.06;102481.88;5016569;28;20045;-68
2021/04/22 11:27:53;;;;;;;11.32;1.58;;;;;;;10.05;32.33;102483.94;5015952;28;20315;-67